Meadow Grove, Nebraska
Current Conditions -  °F | °C
As of 2:44 AM on Saturday 22 Nov 2014 (Local Time) from KOFK Reporting Station
Haze Haze  
Wind Chill: 30°   Ceiling: 400
Heat Index: 37°   Visibility: 2.5mi
Dew Point: 36°   Wind: 10mph
Humidity: 96%   Direction: 190°S
Pressure: 29.86"   Gusts: NA
Location:  42.03°N, 97.73°W
Report Text: KOFK 220844Z AUTO 19009KT 2 1/2SM BR OVC004 03/02 A2986 RMK AO2 T00280022
Loading
Personal Weather Stations






























Interactive Weather Map New forecast layout! Learn more

10-Day Weather Forecast

Advertisements
Track Severe Weather on mobile